createdAt,value
2019-01-02T00:01:32.252Z,101315.13
2019-01-02T00:04:21.735Z,101312.84
2019-01-02T00:07:09.511Z,101316.47
2019-01-02T00:09:38.062Z,101306.65
2019-01-02T00:12:08.448Z,101321.71
2019-01-02T00:14:37.024Z,101324.46
2019-01-02T00:17:07.334Z,101327.00
2019-01-02T00:19:35.927Z,101329.50
2019-01-02T00:22:23.762Z,101326.98
2019-01-02T00:24:54.082Z,101329.02
2019-01-02T00:27:41.782Z,101338.94
2019-01-02T00:30:50.343Z,101339.76
2019-01-02T00:33:18.959Z,101352.88
2019-01-02T00:36:06.676Z,101351.45
2019-01-02T00:38:54.586Z,101347.50
2019-01-02T00:44:16.844Z,101351.91
2019-01-02T00:47:04.588Z,101352.19
2019-01-02T00:49:33.150Z,101352.52
2019-01-02T00:52:01.825Z,101365.92
2019-01-02T00:54:30.555Z,101370.77
2019-01-02T00:56:59.195Z,101374.88
2019-01-02T00:59:47.088Z,101375.30
2019-01-02T01:02:17.478Z,101384.59
2019-01-02T01:04:46.012Z,101373.69
2019-01-02T01:07:16.350Z,101383.85
2019-01-02T01:10:24.813Z,101391.34
2019-01-02T01:13:12.576Z,101398.64
2019-01-02T01:16:01.918Z,101398.70
2019-01-02T01:18:49.638Z,101400.41
2019-01-02T01:21:18.664Z,101415.58
2019-01-02T01:24:08.351Z,101424.32
2019-01-02T01:26:56.125Z,101436.86
2019-01-02T01:29:24.743Z,101435.09
2019-01-02T01:31:55.101Z,101445.63
2019-01-02T01:34:42.937Z,101443.47
2019-01-02T01:37:30.794Z,101452.41
2019-01-02T01:40:18.460Z,101452.03
2019-01-02T01:43:06.061Z,101453.69
2019-01-02T01:45:34.827Z,101451.07
2019-01-02T01:48:22.423Z,101467.63
2019-01-02T01:51:10.026Z,101461.48
2019-01-02T01:53:38.502Z,101467.00
2019-01-02T01:58:43.206Z,101467.34
2019-01-02T02:01:11.698Z,101476.80
2019-01-02T02:03:40.174Z,101484.87
2019-01-02T02:06:27.779Z,101487.09
2019-01-02T02:08:56.257Z,101488.40
2019-01-02T02:11:24.742Z,101491.50
2019-01-02T02:14:12.464Z,101496.06
2019-01-02T02:16:40.949Z,101505.60
2019-01-02T02:19:11.150Z,101504.69
2019-01-02T02:21:58.882Z,101505.50
2019-01-02T02:24:27.358Z,101507.69
2019-01-02T02:27:16.817Z,101513.77
2019-01-02T02:29:45.299Z,101529.43
2019-01-02T02:32:33.124Z,101525.88
2019-01-02T02:35:20.846Z,101518.77
2019-01-02T02:37:49.330Z,101519.46
2019-01-02T02:43:05.251Z,101528.97
2019-01-02T02:45:33.736Z,101535.25
2019-01-02T02:48:03.946Z,101539.17
2019-01-02T02:50:34.145Z,101535.25
2019-01-02T02:53:04.362Z,101543.09
2019-01-02T02:55:34.558Z,101551.41
2019-01-02T03:03:32.323Z,101562.90
2019-01-02T03:06:20.207Z,101560.81
2019-01-02T03:09:09.377Z,101570.04
2019-01-02T03:11:37.861Z,101578.69
2019-01-02T03:14:06.335Z,101580.45
2019-01-02T03:16:36.897Z,101589.28
2019-01-02T03:19:26.438Z,101581.38
2019-01-02T03:22:15.775Z,101585.73
2019-01-02T03:30:45.695Z,101591.77
2019-01-02T03:33:35.149Z,101600.29
2019-01-02T03:36:22.750Z,101601.14
2019-01-02T03:38:51.234Z,101597.69
2019-01-02T03:41:38.966Z,101602.40
2019-01-02T03:44:26.692Z,101590.63
2019-01-02T03:47:14.289Z,101594.22
2019-01-02T03:50:01.883Z,101586.37
2019-01-02T03:52:30.377Z,101593.09
2019-01-02T03:55:18.102Z,101600.53
2019-01-02T03:58:05.707Z,101601.02
2019-01-02T04:03:21.631Z,101610.02
2019-01-02T04:05:50.112Z,101617.63
2019-01-02T04:08:37.709Z,101618.77
2019-01-02T04:11:06.187Z,101621.92
2019-01-02T04:13:53.796Z,101620.19
2019-01-02T04:16:41.403Z,101622.85
2019-01-02T04:19:09.880Z,101621.23
2019-01-02T04:21:38.372Z,101618.86
2019-01-02T04:24:06.850Z,101622.41
2019-01-02T04:26:54.454Z,101626.19
2019-01-02T04:29:22.939Z,101625.48
2019-01-02T04:32:10.668Z,101616.72
2019-01-02T04:34:58.483Z,101626.69
2019-01-02T04:37:46.223Z,101633.64
2019-01-02T04:40:33.821Z,101623.53
2019-01-02T04:43:02.311Z,101628.95
2019-01-02T04:45:30.790Z,101626.77
2019-01-02T04:48:18.619Z,101627.31
2019-01-02T04:50:47.098Z,101628.69
2019-01-02T04:53:15.587Z,101626.55
2019-01-02T04:55:44.063Z,101631.93
2019-01-02T04:58:12.549Z,101640.67
2019-01-02T05:00:41.022Z,101643.53
2019-01-02T05:03:09.506Z,101653.38
2019-01-02T05:05:37.985Z,101651.78
2019-01-02T05:08:06.469Z,101650.70
2019-01-02T05:10:34.942Z,101654.31
2019-01-02T05:13:03.432Z,101658.62
2019-01-02T05:15:31.910Z,101661.53
2019-01-02T05:18:00.398Z,101666.63
2019-01-02T05:20:28.873Z,101673.94
2019-01-02T05:23:16.606Z,101680.08
2019-01-02T05:25:45.087Z,101686.55
2019-01-02T05:28:32.815Z,101684.13
2019-01-02T05:31:01.294Z,101685.06
2019-01-02T05:33:48.900Z,101685.05
2019-01-02T05:36:36.625Z,101697.54
2019-01-02T05:39:45.017Z,101704.08
2019-01-02T05:44:47.148Z,101701.52
2019-01-02T05:47:34.750Z,101710.67
2019-01-02T05:53:11.299Z,101706.89
2019-01-02T05:55:39.773Z,101713.88
2019-01-02T05:58:27.376Z,101719.98
2019-01-02T06:00:55.853Z,101715.72
2019-01-02T06:03:24.337Z,101731.35
2019-01-02T06:06:11.922Z,101739.63
2019-01-02T06:08:40.408Z,101742.63
2019-01-02T06:11:28.135Z,101755.19
2019-01-02T06:14:15.871Z,101762.50
2019-01-02T06:16:44.354Z,101758.41
2019-01-02T06:19:32.169Z,101772.66
2019-01-02T06:22:00.658Z,101780.50
2019-01-02T06:24:48.383Z,101777.41
2019-01-02T06:27:35.986Z,101791.41
2019-01-02T06:30:44.722Z,101788.41
2019-01-02T06:33:32.296Z,101802.91
2019-01-02T06:36:19.890Z,101799.43
2019-01-02T06:38:48.374Z,101800.34
2019-01-02T06:41:16.850Z,101805.92
2019-01-02T06:44:04.585Z,101815.64
2019-01-02T06:46:33.060Z,101809.27
2019-01-02T06:49:13.478Z,101819.33
2019-01-02T06:51:41.959Z,101821.93
2019-01-02T06:54:29.689Z,101831.03
2019-01-02T06:56:58.175Z,101832.05
2019-01-02T06:59:45.903Z,101844.21
2019-01-02T07:02:33.503Z,101853.00
2019-01-02T07:05:21.226Z,101861.30
2019-01-02T07:07:49.708Z,101845.23
2019-01-02T07:10:37.428Z,101860.91
2019-01-02T07:13:25.034Z,101871.34
2019-01-02T07:18:40.953Z,101885.27
2019-01-02T07:21:09.426Z,101879.64
2019-01-02T07:23:37.909Z,101894.50
2019-01-02T07:26:25.507Z,101907.17
2019-01-02T07:29:13.248Z,101912.84
2019-01-02T07:32:00.976Z,101912.80
2019-01-02T07:35:09.370Z,101932.02
2019-01-02T07:38:17.771Z,101927.25
2019-01-02T07:41:26.162Z,101931.13
2019-01-02T07:44:34.558Z,101940.72
2019-01-02T07:47:42.949Z,101939.78
2019-01-02T07:50:51.342Z,101950.27
2019-01-02T07:53:59.823Z,101952.43
2019-01-02T07:57:06.879Z,101961.12
2019-01-02T08:00:15.271Z,101957.25
2019-01-02T08:03:22.355Z,101960.27
2019-01-02T08:06:29.424Z,101968.10
2019-01-02T08:09:36.491Z,101967.61
2019-01-02T08:12:43.562Z,101976.26
2019-01-02T08:15:50.631Z,101986.26
2019-01-02T08:18:57.704Z,101993.33
2019-01-02T08:22:04.771Z,101989.55
2019-01-02T08:25:11.845Z,102004.05
2019-01-02T08:28:20.241Z,101999.89
2019-01-02T08:31:28.636Z,102021.80
2019-01-02T08:34:35.710Z,102036.52
2019-01-02T08:37:44.102Z,102041.73
2019-01-02T08:40:52.552Z,102044.36
2019-01-02T08:44:00.940Z,102054.25
2019-01-02T08:47:08.005Z,102070.95
2019-01-02T08:50:16.398Z,102070.05
2019-01-02T08:53:24.780Z,102080.64
2019-01-02T08:56:31.852Z,102084.83
2019-01-02T08:59:38.953Z,102094.68
2019-01-02T09:02:46.052Z,102098.66
2019-01-02T09:05:53.121Z,102099.15
2019-01-02T09:09:00.206Z,102106.23
2019-01-02T09:12:08.665Z,102118.03
2019-01-02T09:15:15.740Z,102112.11
2019-01-02T09:18:22.839Z,102123.71
2019-01-02T09:21:31.281Z,102126.16
2019-01-02T09:24:38.340Z,102123.87
2019-01-02T09:27:46.796Z,102141.87
2019-01-02T09:30:53.883Z,102147.34
2019-01-02T09:34:00.936Z,102146.11
2019-01-02T09:37:08.034Z,102155.94
2019-01-02T09:40:16.475Z,102153.11
2019-01-02T09:43:24.718Z,102157.27
2019-01-02T09:46:32.445Z,102171.33
2019-01-02T09:49:13.519Z,102180.28
2019-01-02T09:52:21.986Z,102194.89
2019-01-02T09:55:30.396Z,102189.27
2019-01-02T09:58:38.850Z,102199.62
2019-01-02T10:01:46.166Z,102199.18
2019-01-02T10:04:53.260Z,102197.22
2019-01-02T10:08:00.343Z,102203.67
2019-01-02T10:11:08.737Z,102187.69
2019-01-02T10:14:15.798Z,102195.98
2019-01-02T10:17:24.184Z,102194.22
2019-01-02T10:20:31.276Z,102204.14
2019-01-02T10:23:39.643Z,102204.30
2019-01-02T10:26:48.098Z,102202.89
2019-01-02T10:29:56.512Z,102204.22
2019-01-02T10:33:03.619Z,102207.42
2019-01-02T10:36:12.035Z,102208.50
2019-01-02T10:39:20.474Z,102203.34
2019-01-02T10:42:27.585Z,102197.48
2019-01-02T10:45:36.002Z,102204.62
2019-01-02T10:48:44.514Z,102214.77
2019-01-02T10:51:52.961Z,102215.58
2019-01-02T10:55:00.153Z,102206.39
2019-01-02T10:58:08.545Z,102221.00
2019-01-02T11:01:15.641Z,102220.90
2019-01-02T11:04:24.139Z,102224.69
2019-01-02T11:07:31.817Z,102229.31
2019-01-02T11:10:38.930Z,102231.77
2019-01-02T11:13:46.098Z,102230.52
2019-01-02T11:16:53.162Z,102236.87
2019-01-02T11:20:01.648Z,102233.34
2019-01-02T11:23:08.826Z,102254.74
2019-01-02T11:26:17.258Z,102255.44
2019-01-02T11:29:24.313Z,102260.16
2019-01-02T11:32:32.767Z,102253.03
2019-01-02T11:35:39.836Z,102256.14
2019-01-02T11:38:48.289Z,102249.98
2019-01-02T11:41:56.728Z,102267.48
2019-01-02T11:45:03.796Z,102263.46
2019-01-02T11:47:51.390Z,102268.23
2019-01-02T11:50:19.878Z,102266.09
2019-01-02T11:53:07.472Z,102266.84
2019-01-02T11:55:35.945Z,102266.84
2019-01-02T11:58:23.541Z,102275.22
2019-01-02T12:00:52.013Z,102265.36
2019-01-02T12:03:39.837Z,102268.08
2019-01-02T12:06:27.652Z,102272.26
2019-01-02T12:09:36.051Z,102273.47
2019-01-02T12:15:52.501Z,102276.59
2019-01-02T12:21:08.411Z,102272.83
2019-01-02T12:23:56.152Z,102282.80
2019-01-02T12:26:43.865Z,102279.67
2019-01-02T12:29:12.350Z,102272.31
2019-01-02T12:32:20.740Z,102286.95
2019-01-02T12:34:49.217Z,102287.27
2019-01-02T12:37:37.028Z,102283.02
2019-01-02T12:40:24.857Z,102297.78
2019-01-02T12:42:53.328Z,102296.70
2019-01-02T12:45:21.805Z,102285.92
2019-01-02T12:48:09.396Z,102286.63
2019-01-02T12:50:37.878Z,102305.81
2019-01-02T12:53:25.466Z,102296.36
2019-01-02T12:55:53.948Z,102299.77
2019-01-02T12:58:22.421Z,102303.15
2019-01-02T13:01:30.827Z,102304.09
2019-01-02T13:04:37.905Z,102299.48
2019-01-02T13:07:44.967Z,102289.45
2019-01-02T13:10:53.359Z,102295.60
2019-01-02T13:14:01.753Z,102308.53
2019-01-02T13:17:08.821Z,102304.56
2019-01-02T13:20:15.896Z,102302.89
2019-01-02T13:23:24.286Z,102315.19
2019-01-02T13:26:32.680Z,102324.27
2019-01-02T13:29:41.078Z,102323.89
2019-01-02T13:32:49.518Z,102332.56
2019-01-02T13:35:57.914Z,102330.44
2019-01-02T13:39:06.375Z,102329.40
2019-01-02T13:42:13.447Z,102327.28
2019-01-02T13:45:21.894Z,102338.20
2019-01-02T13:48:30.282Z,102329.98
2019-01-02T13:51:38.680Z,102337.89
2019-01-02T13:54:07.147Z,102336.53
2019-01-02T13:56:54.879Z,102336.13
2019-01-02T13:59:23.348Z,102338.38
2019-01-02T14:02:11.180Z,102347.67
2019-01-02T14:05:19.576Z,102339.73
2019-01-02T14:08:14.337Z,102346.32
2019-01-02T14:11:02.071Z,102352.49
2019-01-02T14:13:30.543Z,102355.08
2019-01-02T14:18:32.912Z,102360.42
2019-01-02T14:23:54.556Z,102369.66
2019-01-02T14:34:24.924Z,102379.72
2019-01-02T14:37:12.653Z,102391.21
2019-01-02T14:40:00.419Z,102384.67
2019-01-02T14:42:28.879Z,102393.41
2019-01-02T14:45:16.694Z,102390.80
2019-01-02T14:48:04.302Z,102393.44
2019-01-02T14:50:32.800Z,102400.03
2019-01-02T14:53:20.530Z,102403.58
2019-01-02T14:55:49.010Z,102402.27
2019-01-02T14:58:17.496Z,102406.76
2019-01-02T15:00:45.971Z,102408.03
2019-01-02T15:03:14.450Z,102408.02
2019-01-02T15:08:30.419Z,102417.23
2019-01-02T15:11:18.006Z,102423.36
2019-01-02T15:14:05.833Z,102429.48
2019-01-02T15:16:53.569Z,102423.86
2019-01-02T15:19:41.159Z,102432.98
2019-01-02T15:22:09.640Z,102440.00
2019-01-02T15:24:57.370Z,102435.67
2019-01-02T15:27:25.929Z,102436.56
2019-01-02T15:29:54.420Z,102435.27
2019-01-02T15:32:22.899Z,102439.19
2019-01-02T15:35:10.616Z,102443.98
2019-01-02T15:37:39.094Z,102435.31
2019-01-02T15:40:47.503Z,102437.92
2019-01-02T15:43:35.106Z,102448.41
2019-01-02T15:46:22.968Z,102443.61
2019-01-02T15:48:51.448Z,102446.66
2019-01-02T15:51:39.040Z,102449.73
2019-01-02T15:54:07.564Z,102457.55
2019-01-02T15:56:36.040Z,102457.56
2019-01-02T15:59:04.521Z,102456.73
2019-01-02T16:01:52.335Z,102460.23
2019-01-02T16:04:20.819Z,102455.41
2019-01-02T16:06:49.292Z,102464.58
2019-01-02T16:09:17.775Z,102467.19
2019-01-02T16:12:05.493Z,102478.48
2019-01-02T16:14:53.230Z,102474.14
2019-01-02T16:17:21.705Z,102481.55
2019-01-02T16:19:50.191Z,102474.58
2019-01-02T16:25:44.714Z,102480.66
2019-01-02T16:28:32.549Z,102486.31
2019-01-02T16:33:48.460Z,102491.98
2019-01-02T16:36:36.281Z,102489.81
2019-01-02T16:39:44.679Z,102489.80
2019-01-02T16:42:13.158Z,102494.59
2019-01-02T16:45:01.122Z,102493.73
2019-01-02T16:47:29.593Z,102493.27
2019-01-02T16:49:58.093Z,102498.94
2019-01-02T16:52:45.810Z,102501.11
2019-01-02T16:55:33.536Z,102501.13
2019-01-02T16:58:02.009Z,102504.59
2019-01-02T17:00:30.498Z,102506.33
2019-01-02T17:03:18.222Z,102507.63
2019-01-02T17:06:05.948Z,102516.33
2019-01-02T17:08:34.450Z,102508.06
2019-01-02T17:11:02.920Z,102517.18
2019-01-02T17:13:31.399Z,102525.45
2019-01-02T17:15:59.885Z,102525.39
2019-01-02T17:18:28.355Z,102518.48
2019-01-02T17:23:30.567Z,102524.08
2019-01-02T17:25:59.053Z,102525.41
2019-01-02T17:28:46.774Z,102518.45
2019-01-02T17:31:15.254Z,102521.92
2019-01-02T17:34:02.983Z,102521.88
2019-01-02T17:36:31.458Z,102525.37
2019-01-02T17:39:19.297Z,102521.88
2019-01-02T17:41:47.777Z,102530.14
2019-01-02T17:44:16.254Z,102526.22
2019-01-02T17:47:03.988Z,102537.11
2019-01-02T17:49:51.729Z,102532.27
2019-01-02T17:52:20.201Z,102542.28
2019-01-02T17:55:08.045Z,102541.86
2019-01-02T17:57:55.666Z,102543.19
2019-01-02T18:00:24.544Z,102537.06
2019-01-02T18:03:12.238Z,102541.39
2019-01-02T18:06:00.087Z,102541.39
2019-01-02T18:08:48.032Z,102547.02
2019-01-02T18:11:16.714Z,102552.70
2019-01-02T18:16:32.827Z,102558.80
2019-01-02T18:19:20.558Z,102562.69
2019-01-02T18:21:49.237Z,102570.11
2019-01-02T18:24:36.969Z,102571.37
2019-01-02T18:27:24.766Z,102576.17
2019-01-02T18:29:53.270Z,102572.25
2019-01-02T18:34:55.581Z,102580.48
2019-01-02T18:37:43.554Z,102590.09
2019-01-02T18:40:12.192Z,102583.19
2019-01-02T18:42:40.781Z,102582.33
2019-01-02T18:45:28.631Z,102586.66
2019-01-02T18:48:16.395Z,102586.67
2019-01-02T18:53:32.449Z,102592.27
2019-01-02T18:56:01.093Z,102584.82
2019-01-02T18:58:49.013Z,102590.09
2019-01-02T19:01:17.642Z,102596.19
2019-01-02T19:04:05.598Z,102594.44
2019-01-02T19:06:53.455Z,102593.06
2019-01-02T19:09:22.027Z,102591.27
2019-01-02T19:12:10.213Z,102595.63
2019-01-02T19:14:39.024Z,102598.20
2019-01-02T19:17:07.633Z,102609.80
2019-01-02T19:25:16.549Z,102604.71
2019-01-02T19:28:04.429Z,102608.12
2019-01-02T19:30:52.293Z,102608.53
2019-01-02T19:33:40.084Z,102604.13
2019-01-02T19:36:08.785Z,102607.70
2019-01-02T19:41:11.431Z,102605.09
2019-01-02T19:43:59.306Z,102614.21
2019-01-02T19:46:47.039Z,102613.83
2019-01-02T19:49:15.596Z,102614.65
2019-01-02T19:54:18.530Z,102617.10
2019-01-02T19:56:47.136Z,102613.59
2019-01-02T19:59:34.952Z,102615.35
2019-01-02T20:02:22.685Z,102624.01
2019-01-02T20:04:51.158Z,102627.34
2019-01-02T20:09:54.099Z,102627.20
2019-01-02T20:12:41.831Z,102628.12
2019-01-02T20:15:50.219Z,102625.60
2019-01-02T20:18:38.048Z,102620.79
2019-01-02T20:21:25.769Z,102621.22
2019-01-02T20:23:54.253Z,102622.11
2019-01-02T20:29:10.160Z,102621.61
2019-01-02T20:31:38.734Z,102618.53
2019-01-02T20:34:26.588Z,102624.87
2019-01-02T20:36:55.073Z,102617.59
2019-01-02T20:42:30.343Z,102615.64
2019-01-02T20:44:58.844Z,102617.41
2019-01-02T20:47:48.037Z,102615.12
2019-01-02T20:53:04.190Z,102613.78
2019-01-02T20:55:32.657Z,102613.37
2019-01-02T20:58:01.136Z,102611.66
2019-01-02T21:00:29.610Z,102607.45
2019-01-02T21:03:17.345Z,102607.41
2019-01-02T21:06:05.070Z,102599.49
2019-01-02T21:11:26.665Z,102604.64
2019-01-02T21:14:14.394Z,102603.80
2019-01-02T21:16:42.863Z,102604.95
2019-01-02T21:19:30.591Z,102598.82
2019-01-02T21:21:59.066Z,102597.81
2019-01-02T21:24:27.561Z,102594.31
2019-01-02T21:27:15.281Z,102595.89
2019-01-02T21:30:03.008Z,102589.95
2019-01-02T21:32:31.480Z,102591.77
2019-01-02T21:35:19.228Z,102587.81
2019-01-02T21:40:21.339Z,102592.17
2019-01-02T21:42:49.826Z,102594.39
2019-01-02T21:45:37.536Z,102591.30
2019-01-02T21:48:06.017Z,102589.93
2019-01-02T21:50:53.736Z,102588.41
2019-01-02T21:53:41.591Z,102589.34
2019-01-02T21:56:10.060Z,102586.14
2019-01-02T21:58:38.578Z,102585.73
2019-01-02T22:01:07.065Z,102586.71
2019-01-02T22:03:55.042Z,102587.03
2019-01-02T22:06:23.534Z,102593.65
2019-01-02T22:11:25.944Z,102590.69
2019-01-02T22:14:13.802Z,102589.26
2019-01-02T22:17:01.532Z,102580.97
2019-01-02T22:19:49.207Z,102582.70
2019-01-02T22:22:17.681Z,102582.33
2019-01-02T22:25:05.444Z,102578.15
2019-01-02T22:27:53.038Z,102581.18
2019-01-02T22:30:40.725Z,102576.26
2019-01-02T22:35:56.654Z,102587.58
2019-01-02T22:38:25.151Z,102581.25
2019-01-02T22:41:12.761Z,102586.55
2019-01-02T22:44:00.518Z,102590.91
2019-01-02T22:46:48.121Z,102587.78
2019-01-02T22:54:43.606Z,102583.05
2019-01-02T22:57:12.088Z,102586.27
2019-01-02T22:59:59.897Z,102587.02
2019-01-02T23:05:55.828Z,102596.67
2019-01-02T23:08:43.427Z,102593.71
2019-01-02T23:11:31.034Z,102591.18
2019-01-02T23:14:18.625Z,102604.43
2019-01-02T23:17:25.594Z,102601.36
2019-01-02T23:20:13.194Z,102609.19
2019-01-02T23:23:20.110Z,102614.95
2019-01-02T23:29:21.594Z,102610.16
2019-01-02T23:32:09.198Z,102612.47
2019-01-02T23:35:16.154Z,102613.37
2019-01-02T23:38:03.783Z,102616.84
2019-01-02T23:43:46.475Z,102610.92
2019-01-02T23:46:34.082Z,102609.37
2019-01-02T23:49:21.681Z,102605.53
2019-01-02T23:52:09.289Z,102610.63
2019-01-02T23:54:56.898Z,102608.90
2019-01-02T23:57:44.580Z,102615.66
